createdAt,value
2019-01-14T00:01:47.175Z,7.40
2019-01-14T00:07:27.435Z,7.40
2019-01-14T00:12:40.156Z,7.50
2019-01-14T00:15:10.697Z,7.50
2019-01-14T00:17:41.164Z,7.50
2019-01-14T00:20:11.818Z,7.40
2019-01-14T00:22:41.802Z,7.30
2019-01-14T00:25:30.746Z,7.10
2019-01-14T00:28:12.546Z,7.10
2019-01-14T00:30:54.839Z,7.00
2019-01-14T00:33:24.763Z,7.10
2019-01-14T00:36:17.384Z,7.10
2019-01-14T00:38:56.581Z,7.10
2019-01-14T00:41:41.009Z,7.10
2019-01-14T00:44:22.758Z,7.10
2019-01-14T00:46:52.882Z,7.10
2019-01-14T00:49:41.748Z,7.10
2019-01-14T00:52:35.158Z,7.00
2019-01-14T00:55:25.619Z,6.70
2019-01-14T00:58:28.527Z,6.20
2019-01-14T01:00:48.183Z,5.60
2019-01-14T01:03:18.470Z,5.10
2019-01-14T01:05:49.087Z,5.10
2019-01-14T01:08:18.845Z,5.20
2019-01-14T01:11:09.161Z,5.30
2019-01-14T01:13:50.369Z,5.40
2019-01-14T01:16:20.684Z,5.50
2019-01-14T01:19:09.830Z,5.60
2019-01-14T01:21:58.559Z,5.70
2019-01-14T01:24:39.735Z,5.70
2019-01-14T01:27:09.707Z,5.70
2019-01-14T01:29:58.657Z,5.80
2019-01-14T01:32:47.796Z,5.80
2019-01-14T01:35:18.414Z,5.90
2019-01-14T01:38:07.438Z,5.90
2019-01-14T01:40:49.167Z,6.00
2019-01-14T01:43:37.917Z,6.10
2019-01-14T01:46:27.080Z,6.20
2019-01-14T01:49:08.019Z,6.30
2019-01-14T01:51:49.697Z,6.40
2019-01-14T01:54:28.323Z,6.40
2019-01-14T01:59:58.688Z,6.50
2019-01-14T02:02:47.505Z,6.50
2019-01-14T02:05:36.343Z,6.60
2019-01-14T02:08:17.691Z,6.70
2019-01-14T02:10:59.435Z,6.80
2019-01-14T02:13:42.971Z,6.80
2019-01-14T02:19:36.894Z,6.80
2019-01-14T02:22:25.957Z,6.70
2019-01-14T02:25:15.847Z,6.70
2019-01-14T02:27:57.416Z,6.60
2019-01-14T02:30:27.466Z,6.60
2019-01-14T02:33:16.330Z,6.60
2019-01-14T02:36:24.283Z,6.60
2019-01-14T02:38:54.155Z,6.50
2019-01-14T02:41:24.019Z,6.60
2019-01-14T02:43:53.868Z,6.60
2019-01-14T02:46:42.761Z,6.50
2019-01-14T02:49:12.598Z,6.50
2019-01-14T02:52:01.457Z,6.50
2019-01-14T02:54:31.139Z,6.50
2019-01-14T02:57:33.824Z,6.50
2019-01-14T02:59:51.194Z,6.50
2019-01-14T03:02:40.507Z,6.50
2019-01-14T03:05:21.902Z,6.50
2019-01-14T03:07:52.074Z,6.50
2019-01-14T03:13:12.843Z,6.50
2019-01-14T03:15:42.661Z,6.50
2019-01-14T03:18:31.376Z,6.50
2019-01-14T03:21:01.443Z,6.60
2019-01-14T03:23:50.239Z,6.60
2019-01-14T03:26:38.889Z,6.60
2019-01-14T03:29:20.745Z,6.60
2019-01-14T03:31:50.640Z,6.50
2019-01-14T03:34:39.448Z,6.70
2019-01-14T03:37:47.097Z,6.60
2019-01-14T03:40:36.095Z,6.60
2019-01-14T03:43:17.491Z,6.50
2019-01-14T03:45:59.543Z,6.50
2019-01-14T03:48:29.468Z,6.50
2019-01-14T03:51:18.149Z,6.50
2019-01-14T03:54:07.521Z,6.50
2019-01-14T03:56:47.524Z,6.50
2019-01-14T04:02:16.928Z,6.60
2019-01-14T04:07:48.564Z,6.60
2019-01-14T04:10:37.262Z,6.60
2019-01-14T04:13:19.107Z,6.60
2019-01-14T04:15:48.816Z,6.60
2019-01-14T04:18:37.497Z,6.60
2019-01-14T04:21:26.324Z,6.60
2019-01-14T04:23:56.190Z,6.60
2019-01-14T04:26:26.165Z,6.50
2019-01-14T04:29:14.960Z,6.50
2019-01-14T04:31:44.825Z,6.50
2019-01-14T04:34:14.649Z,6.50
2019-01-14T04:37:06.151Z,6.40
2019-01-14T04:39:36.226Z,6.40
2019-01-14T04:42:25.071Z,6.30
2019-01-14T04:45:14.128Z,6.30
2019-01-14T04:47:55.774Z,6.20
2019-01-14T04:50:26.319Z,6.20
2019-01-14T04:52:56.342Z,6.10
2019-01-14T04:55:27.848Z,6.10
2019-01-14T04:58:02.203Z,6.10
2019-01-14T05:00:32.141Z,6.10
2019-01-14T05:03:01.928Z,6.20
2019-01-14T05:05:31.843Z,6.20
2019-01-14T05:08:01.947Z,6.10
2019-01-14T05:10:32.245Z,6.20
2019-01-14T05:13:03.350Z,6.10
2019-01-14T05:15:33.869Z,6.10
2019-01-14T05:18:03.727Z,6.20
2019-01-14T05:20:33.895Z,6.20
2019-01-14T05:23:22.753Z,6.20
2019-01-14T05:25:52.760Z,6.20
2019-01-14T05:28:22.705Z,6.20
2019-01-14T05:31:11.541Z,6.10
2019-01-14T05:33:53.239Z,6.10
2019-01-14T05:36:23.076Z,6.10
2019-01-14T05:38:52.739Z,6.10
2019-01-14T05:41:41.720Z,6.10
2019-01-14T05:44:31.182Z,6.10
2019-01-14T05:47:04.452Z,6.20
2019-01-14T05:49:54.119Z,6.30
2019-01-14T05:52:24.215Z,6.20
2019-01-14T05:55:13.021Z,6.30
2019-01-14T05:57:54.354Z,6.30
2019-01-14T06:00:33.748Z,6.30
2019-01-14T06:03:03.642Z,6.30
2019-01-14T06:05:33.358Z,6.30
2019-01-14T06:08:03.546Z,6.30
2019-01-14T06:10:54.723Z,6.30
2019-01-14T06:13:38.519Z,6.40
2019-01-14T06:16:20.132Z,6.40
2019-01-14T06:18:50.123Z,6.40
2019-01-14T06:21:19.788Z,6.40
2019-01-14T06:24:08.636Z,6.50
2019-01-14T06:26:38.890Z,6.40
2019-01-14T06:29:11.002Z,6.40
2019-01-14T06:31:41.123Z,6.50
2019-01-14T06:34:11.178Z,6.40
2019-01-14T06:36:59.815Z,6.30
2019-01-14T06:39:31.170Z,6.30
2019-01-14T06:42:01.071Z,6.20
2019-01-14T06:44:30.854Z,6.20
2019-01-14T06:47:01.341Z,6.10
2019-01-14T06:49:31.295Z,6.20
2019-01-14T06:52:13.086Z,6.20
2019-01-14T06:55:02.479Z,6.10
2019-01-14T06:57:32.551Z,6.10
2019-01-14T07:00:02.757Z,6.10
2019-01-14T07:02:32.626Z,6.10
2019-01-14T07:05:02.600Z,6.20
2019-01-14T07:07:51.595Z,6.10
2019-01-14T07:10:24.775Z,6.10
2019-01-14T07:12:56.277Z,6.20
2019-01-14T07:15:26.225Z,6.20
2019-01-14T07:17:56.213Z,6.30
2019-01-14T07:20:45.408Z,6.30
2019-01-14T07:23:15.645Z,6.30
2019-01-14T07:25:45.331Z,6.20
2019-01-14T07:28:15.060Z,6.10
2019-01-14T07:30:47.912Z,6.10
2019-01-14T07:34:00.896Z,6.10
2019-01-14T07:36:30.409Z,6.10
2019-01-14T07:39:08.384Z,6.10
2019-01-14T07:42:03.764Z,6.10
2019-01-14T07:44:34.298Z,6.10
2019-01-14T07:47:25.328Z,6.00
2019-01-14T07:55:27.934Z,6.00
2019-01-14T08:01:05.611Z,6.10
2019-01-14T08:03:36.136Z,6.10
2019-01-14T08:06:06.254Z,6.10
2019-01-14T08:08:35.942Z,6.10
2019-01-14T08:11:07.446Z,6.10
2019-01-14T08:13:37.250Z,6.10
2019-01-14T08:16:07.053Z,6.00
2019-01-14T08:19:18.752Z,6.00
2019-01-14T08:21:39.607Z,6.00
2019-01-14T08:24:13.873Z,5.90
2019-01-14T08:26:44.213Z,5.80
2019-01-14T08:29:15.165Z,5.70
2019-01-14T08:31:46.177Z,5.60
2019-01-14T08:34:27.649Z,5.60
2019-01-14T08:37:00.895Z,5.60
2019-01-14T08:39:29.091Z,5.60
2019-01-14T08:42:10.901Z,5.60
2019-01-14T08:44:52.702Z,5.50
2019-01-14T08:47:22.553Z,5.50
2019-01-14T08:49:53.024Z,5.50
2019-01-14T08:52:23.222Z,5.30
2019-01-14T08:54:53.158Z,5.20
2019-01-14T08:57:23.229Z,5.20
2019-01-14T08:59:54.505Z,5.10
2019-01-14T09:02:26.327Z,5.10
2019-01-14T09:04:57.215Z,4.90
2019-01-14T09:07:51.556Z,4.90
2019-01-14T09:10:43.055Z,4.80
2019-01-14T09:13:13.040Z,4.70
2019-01-14T09:18:33.363Z,4.70
2019-01-14T09:21:03.583Z,4.60
2019-01-14T09:23:33.376Z,4.70
2019-01-14T09:26:22.569Z,4.80
2019-01-14T09:28:52.479Z,4.80
2019-01-14T09:31:25.288Z,4.80
2019-01-14T09:33:59.140Z,4.80
2019-01-14T09:36:29.304Z,4.80
2019-01-14T09:38:59.292Z,4.80
2019-01-14T09:41:32.235Z,4.80
2019-01-14T09:44:02.195Z,4.80
2019-01-14T09:46:32.392Z,4.80
2019-01-14T09:49:21.127Z,4.90
2019-01-14T09:51:50.963Z,5.00
2019-01-14T09:54:40.387Z,5.00
2019-01-14T09:57:11.064Z,5.10
2019-01-14T09:59:41.544Z,5.10
2019-01-14T10:02:14.525Z,5.10
2019-01-14T10:04:44.643Z,5.10
2019-01-14T10:07:16.216Z,5.20
2019-01-14T10:09:46.394Z,5.10
2019-01-14T10:12:17.126Z,5.10
2019-01-14T10:18:05.401Z,5.40
2019-01-14T10:20:35.422Z,5.40
2019-01-14T10:23:06.050Z,5.40
2019-01-14T10:25:36.306Z,5.60
2019-01-14T10:28:07.379Z,5.60
2019-01-14T10:30:37.896Z,5.80
2019-01-14T10:33:08.121Z,5.90
2019-01-14T10:35:44.170Z,6.20
2019-01-14T10:38:14.503Z,6.30
2019-01-14T10:40:44.956Z,6.50
2019-01-14T10:43:15.931Z,6.70
2019-01-14T10:45:47.038Z,6.70
2019-01-14T10:48:26.836Z,6.60
2019-01-14T10:56:57.464Z,6.40
2019-01-14T10:59:30.339Z,6.30
2019-01-14T11:02:05.650Z,6.30
2019-01-14T11:04:36.700Z,6.30
2019-01-14T11:07:06.872Z,6.30
2019-01-14T11:09:37.710Z,6.40
2019-01-14T11:12:08.484Z,6.50
2019-01-14T11:14:39.280Z,6.70
2019-01-14T11:17:10.743Z,7.00
2019-01-14T11:19:41.387Z,7.20
2019-01-14T11:22:17.735Z,7.30
2019-01-14T11:24:51.341Z,7.20
2019-01-14T11:27:23.043Z,7.00
2019-01-14T11:29:59.181Z,6.90
2019-01-14T11:32:36.463Z,6.40
2019-01-14T11:35:11.741Z,5.80
2019-01-14T11:37:44.890Z,4.90
2019-01-14T11:40:18.140Z,4.50
2019-01-14T11:42:54.387Z,4.50
2019-01-14T11:45:26.739Z,4.50
2019-01-14T11:47:57.880Z,4.60
2019-01-14T11:50:29.253Z,4.70
2019-01-14T11:53:00.825Z,4.60
2019-01-14T11:55:34.636Z,4.90
2019-01-14T11:58:35.860Z,4.90
2019-01-14T12:01:09.194Z,5.00
2019-01-14T12:03:39.934Z,5.10
2019-01-14T12:06:10.424Z,5.10
2019-01-14T12:08:45.605Z,5.10
2019-01-14T12:11:15.953Z,5.30
2019-01-14T12:13:50.119Z,5.60
2019-01-14T12:16:24.882Z,5.80
2019-01-14T12:18:56.346Z,6.10
2019-01-14T12:21:30.931Z,6.10
2019-01-14T12:24:01.275Z,6.20
2019-01-14T12:26:34.781Z,6.20
2019-01-14T12:31:55.494Z,6.00
2019-01-14T12:34:26.462Z,6.00
2019-01-14T12:36:56.952Z,6.10
2019-01-14T12:39:30.753Z,6.20
2019-01-14T12:42:01.592Z,6.30
2019-01-14T12:44:32.190Z,6.20
2019-01-14T12:47:02.616Z,6.20
2019-01-14T12:49:35.430Z,6.10
2019-01-14T12:52:06.118Z,5.90
2019-01-14T12:54:36.272Z,5.80
2019-01-14T12:57:07.123Z,5.80
2019-01-14T12:59:45.247Z,5.90
2019-01-14T13:02:16.116Z,6.00
2019-01-14T13:04:58.754Z,6.10
2019-01-14T13:07:29.459Z,6.20
2019-01-14T13:10:06.024Z,6.40
2019-01-14T13:12:39.213Z,6.60
2019-01-14T13:15:13.035Z,6.80
2019-01-14T13:17:43.575Z,6.80
2019-01-14T13:20:14.226Z,6.70
2019-01-14T13:22:47.641Z,6.70
2019-01-14T13:25:17.823Z,6.90
2019-01-14T13:27:50.886Z,6.90
2019-01-14T13:30:26.423Z,6.90
2019-01-14T13:32:59.528Z,6.80
2019-01-14T13:35:29.801Z,6.70
2019-01-14T13:38:03.592Z,6.70
2019-01-14T13:40:34.441Z,6.60
2019-01-14T13:43:05.022Z,6.50
2019-01-14T13:45:35.550Z,6.20
2019-01-14T13:48:28.777Z,5.20
2019-01-14T13:51:01.182Z,4.60
2019-01-14T13:53:53.349Z,4.20
2019-01-14T13:56:28.423Z,4.00
2019-01-14T13:59:01.239Z,4.10
2019-01-14T14:01:50.527Z,4.10
2019-01-14T14:04:20.378Z,4.10
2019-01-14T14:06:53.562Z,4.30
2019-01-14T14:09:25.371Z,4.20
2019-01-14T14:12:15.910Z,4.30
2019-01-14T14:15:02.529Z,4.30
2019-01-14T14:20:20.771Z,5.10
2019-01-14T14:22:50.538Z,5.90
2019-01-14T14:25:20.546Z,6.60
2019-01-14T14:28:01.996Z,6.90
2019-01-14T14:30:47.443Z,7.00
2019-01-14T14:33:25.907Z,7.20
2019-01-14T14:35:51.911Z,7.20
2019-01-14T14:38:21.875Z,6.90
2019-01-14T14:40:55.660Z,6.20
2019-01-14T14:43:26.229Z,5.70
2019-01-14T14:46:05.750Z,5.40
2019-01-14T14:48:36.299Z,5.30
2019-01-14T14:51:08.257Z,5.20
2019-01-14T14:53:38.116Z,5.20
2019-01-14T14:56:11.619Z,5.10
2019-01-14T14:58:42.542Z,5.00
2019-01-14T15:01:12.534Z,5.10
2019-01-14T15:03:43.826Z,5.10
2019-01-14T15:06:16.496Z,5.10
2019-01-14T15:08:47.810Z,5.30
2019-01-14T15:11:20.278Z,5.30
2019-01-14T15:14:19.820Z,5.20
2019-01-14T15:16:50.452Z,5.20
2019-01-14T15:19:25.364Z,5.20
2019-01-14T15:21:55.862Z,5.10
2019-01-14T15:24:28.201Z,5.10
2019-01-14T15:26:59.218Z,5.10
2019-01-14T15:33:35.226Z,5.20
2019-01-14T15:36:08.201Z,5.10
2019-01-14T15:38:43.407Z,4.90
2019-01-14T15:41:23.792Z,4.90
2019-01-14T15:43:57.611Z,4.90
2019-01-14T15:46:33.112Z,4.90
2019-01-14T15:49:07.331Z,4.80
2019-01-14T15:51:52.736Z,4.80
2019-01-14T15:54:22.914Z,4.90
2019-01-14T15:56:55.065Z,4.90
2019-01-14T15:59:29.176Z,4.90
2019-01-14T16:02:07.120Z,5.00
2019-01-14T16:04:38.916Z,5.00
2019-01-14T16:07:10.525Z,5.10
2019-01-14T16:09:42.405Z,5.20
2019-01-14T16:12:14.677Z,5.20
2019-01-14T16:14:45.681Z,5.30
2019-01-14T16:17:16.009Z,5.30
2019-01-14T16:19:54.744Z,5.40
2019-01-14T16:22:29.080Z,5.50
2019-01-14T16:25:00.357Z,5.50
2019-01-14T16:27:31.060Z,5.50
2019-01-14T16:30:01.529Z,5.40
2019-01-14T16:32:38.367Z,5.40
2019-01-14T16:35:17.102Z,5.30
2019-01-14T16:38:07.562Z,5.40
2019-01-14T16:40:39.091Z,5.30
2019-01-14T16:43:14.439Z,5.30
2019-01-14T16:46:01.878Z,5.40
2019-01-14T16:48:36.830Z,5.50
2019-01-14T16:51:09.387Z,5.50
2019-01-14T16:53:40.824Z,5.40
2019-01-14T16:56:14.939Z,5.30
2019-01-14T16:58:48.758Z,5.30
2019-01-14T17:01:22.421Z,5.30
2019-01-14T17:03:58.193Z,5.40
2019-01-14T17:06:32.478Z,5.50
2019-01-14T17:09:05.446Z,5.60
2019-01-14T17:11:40.276Z,5.50
2019-01-14T17:14:31.673Z,5.60
2019-01-14T17:17:12.100Z,5.50
2019-01-14T17:19:46.238Z,5.50
2019-01-14T17:22:23.076Z,5.40
2019-01-14T17:25:06.904Z,5.50
2019-01-14T17:27:39.352Z,5.30
2019-01-14T17:30:14.383Z,5.40
2019-01-14T17:32:45.638Z,5.30
2019-01-14T17:35:31.397Z,5.40
2019-01-14T17:38:05.740Z,5.30
2019-01-14T17:40:49.839Z,5.30
2019-01-14T17:43:21.119Z,5.30
2019-01-14T17:45:52.638Z,5.30
2019-01-14T17:48:26.710Z,5.40
2019-01-14T17:51:07.581Z,5.40
2019-01-14T17:53:48.361Z,5.30
2019-01-14T17:56:19.018Z,5.30
2019-01-14T17:58:49.745Z,5.30
2019-01-14T18:01:19.735Z,5.20
2019-01-14T18:03:50.331Z,5.20
2019-01-14T18:06:21.646Z,5.20
2019-01-14T18:09:04.585Z,5.20
2019-01-14T18:11:48.787Z,5.20
2019-01-14T18:14:18.230Z,5.20
2019-01-14T18:17:13.215Z,5.20
2019-01-14T18:19:43.163Z,5.20
2019-01-14T18:22:14.605Z,5.30
2019-01-14T18:24:45.844Z,5.30
2019-01-14T18:27:15.481Z,5.40
2019-01-14T18:29:49.734Z,5.50
2019-01-14T18:32:22.242Z,5.50
2019-01-14T18:35:03.145Z,5.60
2019-01-14T18:37:42.834Z,5.60
2019-01-14T18:40:23.751Z,5.60
2019-01-14T18:43:07.549Z,5.50
2019-01-14T18:46:02.856Z,5.50
2019-01-14T18:48:39.160Z,5.60
2019-01-14T18:51:11.563Z,5.60
2019-01-14T18:53:41.862Z,5.60
2019-01-14T18:56:13.803Z,5.60
2019-01-14T18:58:45.752Z,5.60
2019-01-14T19:01:16.705Z,5.70
2019-01-14T19:04:25.128Z,5.80
2019-01-14T19:06:59.004Z,5.90
2019-01-14T19:09:34.385Z,6.00
2019-01-14T19:12:21.084Z,6.00
2019-01-14T19:14:58.634Z,6.00
2019-01-14T19:17:37.281Z,6.00
2019-01-14T19:20:17.737Z,6.00
2019-01-14T19:22:49.632Z,5.70
2019-01-14T19:25:23.516Z,5.60
2019-01-14T19:28:01.120Z,5.50
2019-01-14T19:30:38.842Z,5.60
2019-01-14T19:33:13.637Z,5.60
2019-01-14T19:35:55.339Z,5.50
2019-01-14T19:38:35.842Z,5.40
2019-01-14T19:41:07.579Z,5.50
2019-01-14T19:43:38.019Z,5.50
2019-01-14T19:46:28.088Z,5.40
2019-01-14T19:49:12.834Z,5.40
2019-01-14T19:52:05.891Z,5.30
2019-01-14T19:54:42.474Z,5.40
2019-01-14T19:58:08.069Z,5.40
2019-01-14T20:00:54.600Z,5.40
2019-01-14T20:03:46.617Z,5.40
2019-01-14T20:06:57.900Z,5.40
2019-01-14T20:09:55.861Z,5.50
2019-01-14T20:12:30.476Z,5.40
2019-01-14T20:15:48.452Z,5.30
2019-01-14T20:18:38.173Z,5.30
2019-01-14T20:21:20.300Z,5.20
2019-01-14T20:24:23.366Z,5.10
2019-01-14T20:27:30.630Z,5.00
2019-01-14T20:30:41.484Z,5.00
2019-01-14T20:33:50.108Z,5.00
2019-01-14T20:37:02.036Z,5.20
2019-01-14T20:39:32.396Z,5.40
2019-01-14T20:52:00.781Z,5.50
2019-01-14T20:54:57.096Z,5.60
2019-01-14T20:57:47.672Z,5.50
2019-01-14T21:00:32.740Z,5.50
2019-01-14T21:03:52.095Z,5.50
2019-01-14T21:16:08.750Z,5.40
2019-01-14T21:18:48.052Z,5.40
2019-01-14T21:21:37.742Z,5.40
2019-01-14T21:24:20.356Z,5.40
2019-01-14T21:30:10.409Z,5.40
2019-01-14T21:33:03.446Z,5.20
2019-01-14T21:35:54.840Z,5.10
2019-01-14T21:38:43.095Z,5.00
2019-01-14T21:41:03.545Z,5.00
2019-01-14T21:43:36.192Z,5.00
2019-01-14T21:49:43.706Z,5.10
2019-01-14T21:52:22.807Z,5.20
2019-01-14T21:54:54.005Z,5.20
2019-01-14T21:57:25.334Z,5.20
2019-01-14T22:00:16.259Z,5.20
2019-01-14T22:02:51.177Z,5.30
2019-01-14T22:05:33.871Z,5.50
2019-01-14T22:08:08.471Z,5.60
2019-01-14T22:10:42.079Z,5.60
2019-01-14T22:13:22.593Z,5.50
2019-01-14T22:16:00.295Z,5.40
2019-01-14T22:18:36.841Z,5.40
2019-01-14T22:21:10.313Z,5.40
2019-01-14T22:31:02.202Z,5.20
2019-01-14T22:40:07.573Z,5.00
2019-01-14T22:42:39.898Z,4.90
2019-01-14T22:45:30.657Z,4.90
2019-01-14T22:48:02.019Z,4.80
2019-01-14T22:50:53.559Z,4.70
2019-01-14T22:53:28.578Z,4.50
2019-01-14T23:01:48.531Z,4.40
2019-01-14T23:04:35.656Z,4.20
2019-01-14T23:07:54.807Z,4.40
2019-01-14T23:14:03.092Z,4.30
2019-01-14T23:19:48.460Z,4.10
2019-01-14T23:22:21.371Z,3.90
2019-01-14T23:24:55.554Z,3.90
2019-01-14T23:27:45.850Z,3.80
2019-01-14T23:30:19.490Z,3.80
2019-01-14T23:32:55.339Z,3.70
2019-01-14T23:35:30.990Z,3.70
2019-01-14T23:38:04.181Z,3.60
2019-01-14T23:40:43.602Z,3.50
2019-01-14T23:43:40.806Z,3.50
2019-01-14T23:46:23.780Z,3.50
2019-01-14T23:48:58.093Z,3.50
2019-01-14T23:54:37.082Z,3.50
